Time;durP1;ratioP1;P1;durP2;ratioP2;P2;SDS_P1;SDS_P2;PMS_P1;PMS_P2;Temp;Humidity;BMP_temperature;BMP_pressure;BME280_temperature;BME280_humidity;BME280_pressure;Samples;Min_cycle;Max_cycle;Signal;HPM_P1;HPM_P2
2022/11/15 00:02:04;;;;;;;8.55;7.20;;;;;;;16.21;62.57;100846.00;4738254;30;20104;-80
2022/11/15 00:05:07;;;;;;;8.27;6.75;;;;;;;16.24;62.58;100847.72;4739770;30;20044;-82
2022/11/15 00:07:52;;;;;;;9.02;7.30;;;;;;;16.23;62.55;100840.81;4719905;30;20084;-81
2022/11/15 00:10:22;;;;;;;8.43;6.97;;;;;;;16.23;62.56;100833.03;4721461;30;20037;-81
2022/11/15 00:13:08;;;;;;;9.35;7.13;;;;;;;16.24;62.36;100846.00;4735325;30;20220;-82
2022/11/15 00:16:13;;;;;;;9.48;7.38;;;;;;;16.23;62.38;100844.25;4751604;30;20040;-81
2022/11/15 00:18:48;;;;;;;8.35;7.15;;;;;;;16.22;62.37;100833.88;4755528;30;20104;-82
2022/11/15 00:25:12;;;;;;;7.50;6.65;;;;;;;16.22;62.43;100839.94;4755706;30;20128;-83
2022/11/15 00:27:51;;;;;;;8.75;6.93;;;;;;;16.23;62.40;100840.81;4784591;30;20047;-81
2022/11/15 00:37:20;;;;;;;8.27;7.03;;;;;;;16.22;62.38;100829.56;4814365;29;20096;-82
2022/11/15 00:40:20;;;;;;;9.15;7.45;;;;;;;16.22;62.37;100824.38;4828672;29;20103;-82
2022/11/15 00:43:39;;;;;;;8.32;6.70;;;;;;;16.22;62.25;100832.16;4828227;29;20043;-82
2022/11/15 00:53:30;;;;;;;8.35;6.80;;;;;;;16.22;62.12;100802.72;4827707;29;20046;-82
2022/11/15 00:56:31;;;;;;;9.10;7.00;;;;;;;16.21;62.31;100801.84;4785738;30;20047;-82
2022/11/15 01:02:28;;;;;;;8.18;6.55;;;;;;;16.21;62.21;100809.66;4809176;30;20046;-82
2022/11/15 01:08:24;;;;;;;8.70;6.72;;;;;;;16.21;61.98;100809.66;4808585;30;20093;-81
2022/11/15 01:11:05;;;;;;;8.13;6.80;;;;;;;16.21;62.21;100811.38;4807967;30;20050;-82
2022/11/15 01:13:52;;;;;;;8.02;6.82;;;;;;;16.21;62.24;100806.19;4803232;30;20072;-81
2022/11/15 01:16:18;;;;;;;8.50;6.88;;;;;;;16.20;62.02;100794.06;4802493;30;20047;-81
2022/11/15 01:18:45;;;;;;;8.13;6.43;;;;;;;16.20;62.11;100788.88;4803069;30;20136;-81
2022/11/15 01:21:19;;;;;;;9.15;7.05;;;;;;;16.21;62.11;100790.63;4788007;30;20046;-81
2022/11/15 01:24:16;;;;;;;8.45;7.05;;;;;;;16.20;62.06;100788.88;4802283;30;20523;-81
2022/11/15 01:37:20;;;;;;;8.93;6.80;;;;;;;16.20;61.96;100778.50;4775190;30;20061;-83
2022/11/15 01:57:31;;;;;;;8.00;6.47;;;;;;;16.20;62.14;100769.00;4757003;30;20105;-83
2022/11/15 02:03:58;;;;;;;8.18;6.82;;;;;;;16.20;62.25;100758.59;4757314;30;20048;-83
2022/11/15 02:10:29;;;;;;;8.25;6.50;;;;;;;16.18;61.96;100744.78;4775586;30;20066;-83
2022/11/15 02:27:25;;;;;;;7.22;6.07;;;;;;;16.18;61.93;100720.53;4793452;30;20082;-83
2022/11/15 02:41:17;;;;;;;8.25;6.22;;;;;;;16.17;62.02;100698.88;4840427;29;20059;-82
2022/11/15 02:44:42;;;;;;;8.27;6.32;;;;;;;16.17;62.17;100698.88;4826973;29;20027;-83
2022/11/15 02:58:29;;;;;;;7.45;6.18;;;;;;;16.18;62.06;100684.19;4773162;30;20032;-82
2022/11/15 05:56:57;;;;;;;5.70;5.10;;;;;;;16.17;62.30;100659.09;4804648;29;20119;-78
2022/11/15 05:59:24;;;;;;;6.00;5.28;;;;;;;16.16;62.26;100663.44;4809068;29;20117;-77
2022/11/15 06:04:24;;;;;;;15.00;8.73;;;;;;;16.18;62.53;100671.22;5427064;24;20400;-80
2022/11/15 06:06:50;;;;;;;21.30;9.30;;;;;;;16.21;62.45;100664.25;4784412;29;20047;-77
2022/11/15 06:09:15;;;;;;;18.30;8.85;;;;;;;16.21;62.42;100668.59;4793351;29;20137;-78
2022/11/15 06:11:41;;;;;;;22.55;9.32;;;;;;;16.21;62.30;100660.81;4809672;29;20050;-78
2022/11/15 06:14:06;;;;;;;22.98;9.32;;;;;;;16.19;62.76;100663.41;4769318;29;20049;-77
2022/11/15 06:19:07;;;;;;;22.40;8.82;;;;;;;16.17;62.78;100661.69;5535681;24;20042;-88
2022/11/15 06:31:53;;;;;;;15.23;7.28;;;;;;;16.19;62.97;100684.16;5349173;24;20054;-81
2022/11/15 06:34:19;;;;;;;24.60;9.25;;;;;;;16.21;63.00;100684.16;4820615;29;20097;-78
2022/11/15 06:36:44;;;;;;;32.25;9.40;;;;;;;16.18;63.00;100679.88;4803180;29;20179;-77
2022/11/15 06:39:10;;;;;;;24.25;9.85;;;;;;;16.19;63.05;100681.56;4831623;29;20046;-77
2022/11/15 06:41:35;;;;;;;18.20;8.68;;;;;;;16.18;63.06;100685.06;4845265;29;20045;-77
2022/11/15 06:44:01;;;;;;;16.98;8.95;;;;;;;16.18;63.23;100687.66;4816124;29;20102;-77
2022/11/15 06:46:27;;;;;;;17.67;8.65;;;;;;;16.18;63.11;100687.66;4815891;29;20038;-78
2022/11/15 06:48:53;;;;;;;17.15;8.10;;;;;;;16.18;63.10;100682.47;4815900;29;20109;-79
2022/11/15 06:51:19;;;;;;;22.27;8.52;;;;;;;16.18;63.34;100681.59;4830875;29;20133;-77
2022/11/15 06:53:44;;;;;;;16.38;7.88;;;;;;;16.17;63.30;100680.72;4817410;29;20037;-78
2022/11/15 06:56:10;;;;;;;15.45;9.15;;;;;;;16.17;63.15;100688.50;4834008;29;20038;-77
2022/11/15 06:58:36;;;;;;;17.67;7.60;;;;;;;16.19;63.25;100688.50;4850116;29;20103;-78
2022/11/15 07:01:07;;;;;;;16.75;7.63;;;;;;;16.18;63.12;100697.19;4850784;29;20057;-78
2022/11/15 07:03:40;;;;;;;15.40;7.75;;;;;;;16.18;63.62;100697.19;4851467;29;20026;-77
2022/11/15 07:06:07;;;;;;;15.35;7.65;;;;;;;16.19;63.26;100706.69;4850908;29;20090;-78
2022/11/15 07:08:33;;;;;;;15.70;7.57;;;;;;;16.18;63.23;100713.63;4847721;29;20038;-78
2022/11/15 07:11:01;;;;;;;17.17;7.25;;;;;;;16.18;63.08;100713.63;4845941;29;20461;-77
2022/11/15 07:13:28;;;;;;;11.98;7.28;;;;;;;16.18;63.26;100705.81;4845671;29;20048;-76
2022/11/15 07:15:54;;;;;;;16.20;7.53;;;;;;;16.18;63.05;100699.78;4830773;29;20107;-77
2022/11/15 07:18:20;;;;;;;13.55;6.65;;;;;;;16.18;63.21;100702.38;4844299;29;20517;-77
2022/11/15 07:20:45;;;;;;;17.85;7.20;;;;;;;16.17;63.25;100695.44;4845615;29;20075;-77
2022/11/15 07:23:11;;;;;;;12.73;6.88;;;;;;;16.17;63.34;100701.50;4844727;29;20454;-76
2022/11/15 07:25:36;;;;;;;15.15;6.93;;;;;;;16.18;63.02;100704.97;4828847;29;20137;-77
2022/11/15 07:28:02;;;;;;;13.25;6.07;;;;;;;16.17;63.43;100701.50;4813750;29;20087;-77
2022/11/15 07:30:28;;;;;;;14.23;6.47;;;;;;;16.17;63.20;100698.03;4829137;29;20129;-77
2022/11/15 07:32:59;;;;;;;14.20;6.30;;;;;;;16.17;63.37;100700.63;4828426;29;20084;-77
2022/11/15 07:35:25;;;;;;;10.00;6.20;;;;;;;16.17;63.03;100703.22;4829031;29;20118;-77
2022/11/15 07:37:59;;;;;;;9.70;6.25;;;;;;;16.16;63.23;100696.31;4829184;29;20052;-77
2022/11/15 07:40:25;;;;;;;15.05;6.40;;;;;;;16.16;63.10;100692.00;4828765;29;20489;-77
2022/11/15 07:42:54;;;;;;;14.23;6.20;;;;;;;16.17;63.26;100695.44;4843681;29;20038;-77
2022/11/15 07:45:21;;;;;;;9.85;6.30;;;;;;;16.17;63.15;100682.47;4845117;29;20038;-77
2022/11/15 07:47:47;;;;;;;13.60;6.45;;;;;;;16.17;63.03;100696.28;4812947;29;20057;-77
2022/11/15 07:50:13;;;;;;;10.43;5.85;;;;;;;16.18;63.18;100684.19;4844931;29;20098;-77
2022/11/15 07:52:38;;;;;;;12.13;6.10;;;;;;;16.18;62.74;100684.19;4845345;29;20510;-77
2022/11/15 07:55:04;;;;;;;11.77;6.55;;;;;;;16.17;63.16;100685.06;4845598;29;20046;-77
2022/11/15 07:57:30;;;;;;;11.55;6.28;;;;;;;16.18;62.92;100686.78;4843346;29;20042;-85
2022/11/15 07:59:55;;;;;;;11.90;6.10;;;;;;;16.18;63.15;100679.00;4864084;29;20026;-82
2022/11/15 08:02:21;;;;;;;10.90;6.00;;;;;;;16.17;62.87;100679.88;4833924;29;20030;-83
2022/11/15 08:04:46;;;;;;;12.20;5.53;;;;;;;16.17;62.97;100674.66;4847723;29;20048;-83
2022/11/15 08:07:12;;;;;;;10.10;5.80;;;;;;;16.18;62.99;100679.00;4847552;29;20056;-82
2022/11/15 08:09:38;;;;;;;10.57;5.90;;;;;;;16.18;63.02;100677.25;4847574;29;20018;-85
2022/11/15 08:12:03;;;;;;;9.70;5.43;;;;;;;16.18;63.12;100682.47;4847310;29;20038;-82
2022/11/15 08:14:29;;;;;;;9.90;5.38;;;;;;;16.18;62.83;100685.06;4847562;29;20038;-83
2022/11/15 08:16:55;;;;;;;8.18;5.10;;;;;;;16.18;62.70;100682.47;4835096;29;20052;-84
2022/11/15 08:19:20;;;;;;;8.88;5.55;;;;;;;16.17;62.77;100680.72;4867116;29;20030;-83
2022/11/15 08:21:46;;;;;;;9.95;5.22;;;;;;;16.18;62.85;100679.00;4848925;29;20109;-84
2022/11/15 08:24:11;;;;;;;8.80;5.20;;;;;;;16.17;63.01;100667.72;4865840;29;20090;-84
2022/11/15 08:26:36;;;;;;;8.73;5.18;;;;;;;16.18;62.77;100669.47;4865480;29;20049;-83
2022/11/15 08:29:02;;;;;;;9.68;5.18;;;;;;;16.18;62.70;100664.28;4864395;29;20046;-84
2022/11/15 08:31:28;;;;;;;8.85;5.13;;;;;;;16.18;62.86;100660.84;4864906;29;20079;-82
2022/11/15 08:33:53;;;;;;;8.98;4.82;;;;;;;16.19;62.78;100654.75;4848817;29;20049;-83
2022/11/15 08:36:19;;;;;;;7.95;4.82;;;;;;;16.19;62.66;100660.81;4848010;29;20038;-83
2022/11/15 08:38:44;;;;;;;8.70;4.90;;;;;;;16.19;62.81;100644.38;4845518;29;20041;-83
2022/11/15 08:41:14;;;;;;;7.03;4.55;;;;;;;16.19;63.02;100646.97;4865184;29;20046;-82
2022/11/15 08:43:40;;;;;;;10.70;4.72;;;;;;;16.20;62.71;100639.19;4864794;29;20042;-83
2022/11/15 08:46:05;;;;;;;8.43;4.57;;;;;;;16.22;62.68;100633.94;4833831;29;20105;-82
2022/11/15 08:48:30;;;;;;;7.90;4.75;;;;;;;16.23;62.62;100635.69;4848288;29;20050;-83
2022/11/15 08:50:56;;;;;;;7.88;4.53;;;;;;;16.22;62.57;100629.66;4848965;29;20056;-83
2022/11/15 08:53:22;;;;;;;9.00;5.00;;;;;;;16.22;62.63;100632.25;4848797;29;20054;-83
2022/11/15 08:55:47;;;;;;;7.18;4.70;;;;;;;16.24;62.51;100643.47;4863605;29;20034;-83
2022/11/15 08:58:12;;;;;;;7.63;4.53;;;;;;;16.22;62.59;100629.66;4831136;29;20045;-84
2022/11/15 09:00:38;;;;;;;7.78;4.30;;;;;;;16.24;62.56;100633.09;4833285;29;20124;-83
2022/11/15 09:03:07;;;;;;;8.05;4.53;;;;;;;16.25;62.64;100636.53;4848624;29;20042;-84
2022/11/15 09:05:35;;;;;;;7.63;4.00;;;;;;;16.25;62.48;100640.00;4865401;29;20067;-85
2022/11/15 09:08:00;;;;;;;8.38;4.57;;;;;;;16.25;62.39;100640.00;4865587;29;20106;-84
2022/11/15 09:10:26;;;;;;;7.90;4.22;;;;;;;16.25;62.56;100634.81;4833647;29;20061;-84
2022/11/15 09:12:51;;;;;;;6.85;3.95;;;;;;;16.27;62.30;100632.19;4849951;29;20038;-84
2022/11/15 09:15:20;;;;;;;6.93;4.35;;;;;;;16.28;62.34;100633.06;4864769;29;20042;-84
2022/11/15 09:17:45;;;;;;;8.70;4.35;;;;;;;16.28;62.23;100630.47;4864380;29;20131;-84
2022/11/15 09:20:11;;;;;;;6.70;3.88;;;;;;;16.28;62.44;100626.13;4835365;29;20042;-82
2022/11/15 09:22:38;;;;;;;7.65;4.05;;;;;;;16.29;62.20;100632.16;4847547;29;20022;-83
2022/11/15 09:25:04;;;;;;;6.78;4.03;;;;;;;16.29;62.40;100627.88;4865589;29;20041;-84
2022/11/15 09:27:30;;;;;;;6.40;4.07;;;;;;;16.31;62.33;100627.81;4861037;29;20062;-84
2022/11/15 09:29:55;;;;;;;6.88;3.67;;;;;;;16.31;62.13;100636.50;4863643;29;20041;-83
2022/11/15 09:32:22;;;;;;;6.70;3.80;;;;;;;16.31;62.14;100636.50;4848074;29;20088;-83
2022/11/15 09:34:48;;;;;;;6.65;4.07;;;;;;;16.32;62.30;100642.56;4849137;29;20038;-84
2022/11/15 09:37:13;;;;;;;7.85;4.05;;;;;;;16.32;62.44;100652.94;4863121;29;20042;-84
2022/11/15 09:39:38;;;;;;;6.32;3.97;;;;;;;16.32;62.14;100642.56;4863771;29;20117;-84
2022/11/15 09:42:20;;;;;;;5.60;3.75;;;;;;;16.31;62.25;100649.50;4845792;29;20053;-84
2022/11/15 09:45:17;;;;;;;6.82;3.70;;;;;;;16.32;62.24;100639.94;4848540;29;20046;-84
2022/11/15 09:48:05;;;;;;;5.55;3.53;;;;;;;16.32;62.38;100653.78;4864153;29;20042;-84
2022/11/15 09:50:53;;;;;;;5.80;3.50;;;;;;;16.32;62.33;100643.41;4846605;29;20038;-83
2022/11/15 09:53:32;;;;;;;6.60;3.42;;;;;;;16.32;62.16;100642.56;4861789;29;20042;-83
2022/11/15 09:56:05;;;;;;;5.22;3.40;;;;;;;16.32;62.28;100642.56;4863829;29;20065;-84
2022/11/15 09:58:43;;;;;;;6.43;3.73;;;;;;;16.31;62.50;100640.81;4846589;29;20038;-84
2022/11/15 10:01:25;;;;;;;4.70;3.42;;;;;;;16.32;62.40;100637.34;4864683;29;20042;-84
2022/11/15 10:03:50;;;;;;;5.57;3.50;;;;;;;16.32;62.31;100634.75;4860721;29;20061;-84
2022/11/15 10:06:26;;;;;;;5.35;3.58;;;;;;;16.32;62.16;100629.56;4832454;29;20056;-84
2022/11/15 10:09:06;;;;;;;4.50;3.10;;;;;;;16.31;62.26;100620.03;4865111;29;20037;-82
2022/11/15 10:11:34;;;;;;;5.75;3.45;;;;;;;16.31;62.22;100620.03;4848062;29;20464;-84
2022/11/15 10:14:25;;;;;;;6.72;3.67;;;;;;;16.32;62.07;100611.38;4848815;29;20038;-83
2022/11/15 10:17:23;;;;;;;5.15;3.08;;;;;;;16.32;62.19;100601.84;4849103;29;20515;-84
2022/11/15 10:20:19;;;;;;;6.15;3.33;;;;;;;16.31;62.09;100600.16;4863678;29;20101;-83
2022/11/15 10:22:50;;;;;;;4.97;3.20;;;;;;;16.30;62.16;100595.81;4863858;29;20041;-83
2022/11/15 10:25:27;;;;;;;5.13;3.50;;;;;;;16.31;62.07;100588.88;4865359;29;20041;-83
2022/11/15 10:28:22;;;;;;;4.97;2.95;;;;;;;16.32;62.27;100588.03;4863467;29;20061;-84
2022/11/15 10:30:53;;;;;;;4.57;3.00;;;;;;;16.30;62.02;100572.44;4864542;29;20046;-83
2022/11/15 10:33:39;;;;;;;4.50;2.55;;;;;;;16.30;62.10;100574.19;4847313;29;20041;-84
2022/11/15 10:36:07;;;;;;;4.97;2.80;;;;;;;16.32;62.11;100572.44;4852490;29;20065;-78
2022/11/15 10:38:33;;;;;;;6.25;3.17;;;;;;;16.30;62.19;100572.44;4843112;29;20034;-77
2022/11/15 10:41:07;;;;;;;5.85;3.13;;;;;;;16.31;62.10;100562.91;4812161;29;20474;-77
2022/11/15 10:43:32;;;;;;;4.85;3.03;;;;;;;16.32;62.09;100556.84;4827278;29;20430;-77
2022/11/15 10:46:20;;;;;;;4.53;2.80;;;;;;;16.31;62.14;100555.13;4843670;29;20147;-77
2022/11/15 10:48:46;;;;;;;4.90;2.65;;;;;;;16.31;62.24;100557.72;4843799;29;20075;-79
2022/11/15 10:51:28;;;;;;;4.60;2.70;;;;;;;16.31;62.23;100560.31;4827606;29;20126;-78
2022/11/15 10:53:55;;;;;;;4.88;2.75;;;;;;;16.32;62.16;100562.06;4827647;29;20040;-77
2022/11/15 10:56:22;;;;;;;4.95;2.72;;;;;;;16.31;61.93;100550.81;4827305;29;20061;-78
2022/11/15 10:58:55;;;;;;;4.07;2.20;;;;;;;16.32;61.98;100554.25;4843989;29;20034;-78
2022/11/15 11:01:26;;;;;;;3.83;2.70;;;;;;;16.32;62.15;100552.53;4843283;29;20053;-78
2022/11/15 11:04:07;;;;;;;4.82;2.60;;;;;;;16.33;62.22;100553.38;4827315;29;20478;-78
2022/11/15 11:06:47;;;;;;;4.30;2.47;;;;;;;16.31;62.18;100537.84;4843647;29;20504;-78
2022/11/15 11:09:35;;;;;;;4.28;2.72;;;;;;;16.32;61.97;100542.13;4827205;29;20561;-78
2022/11/15 11:12:02;;;;;;;3.50;2.38;;;;;;;16.32;62.08;100538.69;4827113;29;20477;-78
2022/11/15 11:14:31;;;;;;;4.47;2.58;;;;;;;16.33;62.03;100543.00;4811778;29;20062;-77
2022/11/15 11:16:59;;;;;;;5.07;2.95;;;;;;;16.33;61.81;100541.28;4843526;29;20178;-78
2022/11/15 11:19:30;;;;;;;5.03;2.80;;;;;;;16.33;61.99;100538.69;4827086;29;20061;-78
2022/11/15 11:22:20;;;;;;;4.32;2.20;;;;;;;16.33;61.80;100532.59;4842196;29;20042;-77
2022/11/15 11:25:12;;;;;;;4.70;2.83;;;;;;;16.33;61.96;100538.69;4843281;29;20030;-78
2022/11/15 11:27:53;;;;;;;3.80;2.15;;;;;;;16.34;61.70;100526.53;4842015;29;20397;-77
2022/11/15 11:30:24;;;;;;;3.60;2.38;;;;;;;16.33;61.97;100520.50;4842496;29;20489;-77
2022/11/15 11:33:03;;;;;;;3.45;2.28;;;;;;;16.34;61.90;100521.34;4826667;29;20058;-78
2022/11/15 11:35:48;;;;;;;3.65;2.35;;;;;;;16.33;61.59;100511.81;4826943;29;20078;-77
2022/11/15 11:38:32;;;;;;;3.63;2.40;;;;;;;16.33;61.85;100511.81;4842091;29;20050;-77
2022/11/15 11:41:16;;;;;;;;;;;;;;;16.34;61.90;100510.97;4827369;29;20086;-78
2022/11/15 11:44:01;;;;;;;4.57;2.33;;;;;;;16.34;61.77;100495.38;4826987;29;19912;-78
2022/11/15 11:46:52;;;;;;;3.20;2.08;;;;;;;16.34;61.65;100485.84;4827732;29;20374;-78
2022/11/15 11:49:46;;;;;;;3.03;2.15;;;;;;;16.34;61.64;100477.22;4828657;29;20065;-78
2022/11/15 11:52:15;;;;;;;;;;;;;;;16.34;61.69;100470.28;4831587;29;20562;-78
2022/11/15 11:54:47;;;;;;;4.20;2.13;;;;;;;16.35;61.53;100471.13;4847132;29;19923;-78
2022/11/15 11:57:27;;;;;;;3.28;2.10;;;;;;;16.35;61.60;100473.72;4846667;29;20042;-78
2022/11/15 11:59:59;;;;;;;2.85;1.90;;;;;;;16.36;61.41;100468.53;4830023;29;20065;-77
2022/11/15 12:02:29;;;;;;;4.60;2.45;;;;;;;16.36;61.62;100465.94;4846700;29;20033;-78
2022/11/15 12:05:03;;;;;;;4.15;2.00;;;;;;;16.36;61.67;100463.31;4846682;29;20045;-79
2022/11/15 12:07:34;;;;;;;3.38;2.28;;;;;;;16.36;61.83;100457.28;4829905;29;20042;-78
2022/11/15 12:10:22;;;;;;;3.10;1.70;;;;;;;16.36;61.67;100457.28;4846487;29;20042;-78
2022/11/15 12:13:04;;;;;;;4.57;2.05;;;;;;;16.36;61.58;100449.50;4830552;29;20038;-77
2022/11/15 12:15:53;;;;;;;3.63;1.90;;;;;;;16.36;61.55;100441.69;4846727;29;20048;-78
2022/11/15 12:18:19;;;;;;;2.97;1.70;;;;;;;16.37;61.51;100443.41;4829963;29;20397;-78
2022/11/15 12:21:14;;;;;;;3.25;2.00;;;;;;;16.38;61.46;100434.75;4814649;29;20042;-77
2022/11/15 12:23:53;;;;;;;3.13;2.00;;;;;;;16.38;61.50;100421.78;4829729;29;20453;-77
2022/11/15 12:26:23;;;;;;;2.70;1.88;;;;;;;16.37;61.52;100425.22;4846229;29;20124;-78
2022/11/15 12:29:00;;;;;;;4.07;2.00;;;;;;;16.38;61.38;100416.56;4846075;29;20477;-77
2022/11/15 12:31:34;;;;;;;3.63;2.03;;;;;;;16.38;61.53;100412.25;4846008;29;20026;-77
2022/11/15 12:34:03;;;;;;;3.30;1.70;;;;;;;16.38;61.49;100416.56;4846368;29;20053;-78
2022/11/15 12:36:28;;;;;;;3.17;1.88;;;;;;;16.38;61.43;100403.59;4829235;29;20470;-77
2022/11/15 12:39:02;;;;;;;3.47;2.05;;;;;;;16.39;61.55;100400.09;4845907;29;20029;-77
2022/11/15 12:41:33;;;;;;;3.95;1.83;;;;;;;16.38;61.45;100399.25;4829457;29;20132;-78
2022/11/15 12:43:59;;;;;;;2.25;1.77;;;;;;;16.38;61.39;100396.66;4829162;29;20064;-77
2022/11/15 12:46:30;;;;;;;2.92;1.70;;;;;;;16.38;61.40;100393.22;4814425;29;20561;-78
2022/11/15 12:49:23;;;;;;;2.58;1.58;;;;;;;16.38;61.35;100388.00;4845716;29;20122;-77
2022/11/15 12:51:49;;;;;;;3.47;1.90;;;;;;;16.38;61.48;100383.66;4829341;29;20042;-77
2022/11/15 12:54:23;;;;;;;3.53;1.88;;;;;;;16.39;61.52;100381.94;4846575;29;20045;-77
2022/11/15 12:57:28;;;;;;;2.88;1.58;;;;;;;16.39;61.38;100377.59;4829150;29;20067;-78
2022/11/15 13:00:01;;;;;;;2.97;1.60;;;;;;;16.38;61.35;100365.50;4836443;29;20056;-78
2022/11/15 13:02:37;;;;;;;3.25;1.90;;;;;;;16.39;61.48;100363.75;4845285;29;20508;-78
2022/11/15 13:05:15;;;;;;;2.58;1.77;;;;;;;16.40;61.58;100360.28;4829185;29;20053;-77
2022/11/15 13:07:40;;;;;;;2.22;1.40;;;;;;;16.40;61.24;100347.31;4845706;29;20062;-78
2022/11/15 13:10:12;;;;;;;2.47;1.52;;;;;;;16.41;61.26;100351.59;4829677;29;20430;-78
2022/11/15 13:12:43;;;;;;;3.05;1.73;;;;;;;16.40;61.45;100349.91;4846003;29;20034;-78
2022/11/15 13:15:12;;;;;;;3.40;1.80;;;;;;;16.40;61.34;100339.50;4845702;29;20045;-77
2022/11/15 13:17:46;;;;;;;2.83;1.60;;;;;;;16.40;61.39;100337.78;4846616;29;20041;-78
2022/11/15 13:20:15;;;;;;;2.42;1.50;;;;;;;16.40;61.42;100327.38;4829807;29;20038;-77
2022/11/15 13:23:02;;;;;;;2.75;1.50;;;;;;;16.39;61.40;100328.25;4848025;29;20037;-78
2022/11/15 13:25:39;;;;;;;3.05;1.67;;;;;;;16.39;61.30;100330.84;4847403;29;20553;-78
2022/11/15 13:28:13;;;;;;;2.47;1.25;;;;;;;16.39;61.42;100333.44;4829396;29;20124;-77
2022/11/15 13:30:40;;;;;;;3.97;1.52;;;;;;;16.39;61.24;100325.66;4848766;29;20085;-82
2022/11/15 13:33:17;;;;;;;3.25;1.63;;;;;;;16.39;61.35;100312.66;4864931;29;20053;-83
2022/11/15 13:35:47;;;;;;;3.45;1.40;;;;;;;16.39;61.46;100311.81;4861375;29;20057;-81
2022/11/15 13:38:28;;;;;;;2.65;1.60;;;;;;;16.39;61.34;100301.44;4842865;29;20054;-84
2022/11/15 13:40:54;;;;;;;2.72;1.50;;;;;;;16.39;61.52;100301.44;4847469;29;20049;-82
2022/11/15 13:43:28;;;;;;;2.58;1.55;;;;;;;16.39;61.35;100302.28;4865039;29;20050;-83
2022/11/15 13:46:21;;;;;;;2.25;1.40;;;;;;;16.38;61.17;100297.13;4848419;29;20032;-83
2022/11/15 13:48:55;;;;;;;3.20;1.70;;;;;;;16.38;61.44;100295.38;4864594;29;20041;-83
2022/11/15 13:51:26;;;;;;;2.80;1.45;;;;;;;16.39;61.47;100291.03;4863122;29;20046;-84
2022/11/15 13:54:01;;;;;;;2.60;1.38;;;;;;;16.37;61.36;100293.66;4862212;29;20070;-83
2022/11/15 13:56:28;;;;;;;2.28;1.38;;;;;;;16.36;61.52;100281.56;4862462;29;20034;-84
2022/11/15 13:58:54;;;;;;;2.13;1.17;;;;;;;16.38;61.12;100290.19;4860704;29;20055;-85
2022/11/15 14:01:21;;;;;;;2.60;1.45;;;;;;;16.37;61.27;100278.06;4845328;29;20053;-84
2022/11/15 14:03:54;;;;;;;2.22;1.30;;;;;;;16.36;61.22;100278.97;4863158;29;20097;-85
2022/11/15 14:06:22;;;;;;;2.20;1.48;;;;;;;16.37;61.16;100272.03;4846785;29;20038;-86
2022/11/15 14:09:02;;;;;;;2.58;1.35;;;;;;;16.36;61.33;100265.97;4846009;29;20109;-84
2022/11/15 14:11:28;;;;;;;2.50;1.48;;;;;;;16.37;61.15;100259.03;4858821;29;20062;-85
2022/11/15 14:14:09;;;;;;;3.10;1.50;;;;;;;16.37;61.32;100251.25;4843776;29;20030;-83
2022/11/15 14:16:46;;;;;;;2.72;1.35;;;;;;;16.35;61.02;100247.81;4858687;29;20058;-82
2022/11/15 14:19:33;;;;;;;2.22;1.30;;;;;;;16.35;61.39;100240.03;4856676;29;20566;-82
2022/11/15 14:22:13;;;;;;;2.72;1.27;;;;;;;16.35;60.94;100232.22;4859731;29;20097;-84
2022/11/15 14:24:40;;;;;;;2.63;1.30;;;;;;;16.35;61.38;100227.91;4843262;29;20094;-84
2022/11/15 14:27:26;;;;;;;2.63;1.40;;;;;;;16.36;61.22;100228.78;4844793;29;20046;-84
2022/11/15 14:29:52;;;;;;;2.70;1.17;;;;;;;16.34;61.08;100215.81;4846407;29;20043;-84
2022/11/15 14:32:26;;;;;;;1.88;1.20;;;;;;;16.35;61.04;100222.72;4861059;29;20058;-83
2022/11/15 14:34:55;;;;;;;;;;;;;;;16.35;61.21;100206.25;4830730;29;20085;-83
2022/11/15 14:37:25;;;;;;;2.10;1.23;;;;;;;16.34;61.08;100209.75;4844640;29;19940;-84
2022/11/15 14:39:51;;;;;;;2.95;1.50;;;;;;;16.34;61.17;100209.75;4861783;29;20038;-83
2022/11/15 14:42:18;;;;;;;1.90;1.15;;;;;;;16.33;61.12;100203.72;4861077;29;20053;-83
2022/11/15 14:44:43;;;;;;;2.13;1.13;;;;;;;16.34;60.96;100191.59;4847577;29;20065;-84
2022/11/15 14:47:08;;;;;;;2.55;1.08;;;;;;;16.33;61.23;100192.44;4839048;29;20037;-78
2022/11/15 14:49:34;;;;;;;2.60;1.20;;;;;;;16.32;61.12;100193.34;4812107;29;20050;-78
2022/11/15 14:51:59;;;;;;;1.92;1.10;;;;;;;16.33;61.15;100195.94;4812029;29;20080;-78
2022/11/15 14:54:25;;;;;;;2.58;1.25;;;;;;;16.33;61.33;100189.84;4811821;29;20140;-78
2022/11/15 14:56:50;;;;;;;1.92;1.10;;;;;;;16.33;60.96;100180.34;4827075;29;20050;-77
2022/11/15 14:59:15;;;;;;;3.20;1.33;;;;;;;16.33;61.03;100179.47;4827468;29;20489;-77
2022/11/15 15:01:41;;;;;;;1.92;1.08;;;;;;;16.32;60.96;100172.56;4827896;29;20174;-77
2022/11/15 15:04:06;;;;;;;2.50;1.30;;;;;;;16.32;60.97;100170.81;4811850;29;20128;-78
2022/11/15 15:06:31;;;;;;;2.20;1.10;;;;;;;16.32;60.90;100168.22;4811931;29;20558;-77
2022/11/15 15:08:57;;;;;;;2.00;1.20;;;;;;;16.31;60.98;100160.44;4827164;29;20077;-78
2022/11/15 15:11:25;;;;;;;2.67;1.20;;;;;;;16.31;61.00;100156.13;4811977;29;20038;-77
2022/11/15 15:13:52;;;;;;;2.25;1.20;;;;;;;16.32;61.07;100154.38;4827063;29;20046;-78
2022/11/15 15:16:18;;;;;;;1.95;1.15;;;;;;;16.31;60.92;100148.34;4812223;29;20509;-77
2022/11/15 15:18:43;;;;;;;2.90;1.23;;;;;;;16.32;60.96;100146.59;4811697;29;20106;-78
2022/11/15 15:21:31;;;;;;;4.00;1.30;;;;;;;16.30;61.23;100138.81;4811723;29;20038;-77
2022/11/15 15:23:56;;;;;;;1.65;1.00;;;;;;;16.31;61.17;100143.16;4843075;29;20037;-78
2022/11/15 15:26:23;;;;;;;2.03;1.15;;;;;;;16.31;61.03;100145.75;4842987;29;20057;-77
2022/11/15 15:28:50;;;;;;;3.10;1.33;;;;;;;16.31;61.02;100139.69;4826942;29;20044;-78
2022/11/15 15:31:16;;;;;;;2.67;1.20;;;;;;;16.30;61.06;100137.97;4812196;29;20049;-78
2022/11/15 15:33:42;;;;;;;1.70;0.95;;;;;;;16.30;60.99;100135.38;4843013;29;20054;-78
2022/11/15 15:36:16;;;;;;;2.58;1.35;;;;;;;16.29;61.02;100131.06;4843132;29;20042;-78
2022/11/15 15:38:42;;;;;;;1.80;1.10;;;;;;;16.29;61.05;100128.47;4826937;29;20106;-78
2022/11/15 15:41:11;;;;;;;3.78;1.20;;;;;;;16.29;60.78;100118.94;4826644;29;20046;-78
2022/11/15 15:43:40;;;;;;;1.73;1.00;;;;;;;16.29;60.98;100120.66;4827240;29;20397;-77
2022/11/15 15:46:11;;;;;;;2.00;1.10;;;;;;;16.29;60.91;100120.66;4812286;29;20493;-78
2022/11/15 15:48:38;;;;;;;2.00;1.10;;;;;;;16.29;60.87;100118.06;4826745;29;20497;-78
2022/11/15 15:51:03;;;;;;;1.92;1.08;;;;;;;16.29;61.13;100120.66;4826638;29;20117;-78
2022/11/15 15:53:30;;;;;;;3.78;1.30;;;;;;;16.28;61.11;100117.22;4841585;29;20125;-78
2022/11/15 15:55:55;;;;;;;3.25;1.20;;;;;;;16.29;60.88;100118.06;4811528;29;20034;-78
2022/11/15 15:58:20;;;;;;;1.63;1.10;;;;;;;16.30;60.70;100120.66;4811395;29;20141;-78
2022/11/15 16:00:46;;;;;;;2.00;1.20;;;;;;;16.28;60.86;100122.41;4842983;29;20046;-78
2022/11/15 16:03:11;;;;;;;1.85;0.98;;;;;;;16.29;60.96;100118.06;4843288;29;20121;-78
2022/11/15 16:05:36;;;;;;;2.03;1.10;;;;;;;16.27;60.96;100120.72;4811519;29;20562;-78
2022/11/15 16:08:02;;;;;;;2.00;0.93;;;;;;;16.27;61.03;100120.72;4811255;29;20180;-78
2022/11/15 16:10:36;;;;;;;2.67;1.15;;;;;;;16.28;61.02;100125.00;4811352;29;20099;-78
2022/11/15 16:13:02;;;;;;;2.00;1.10;;;;;;;16.28;61.04;100121.56;4826368;29;20030;-78
2022/11/15 16:15:30;;;;;;;1.98;1.00;;;;;;;16.27;61.33;100117.28;4811379;29;20098;-78
2022/11/15 16:17:58;;;;;;;2.08;1.02;;;;;;;16.28;61.06;100098.19;4826329;29;20094;-78
2022/11/15 16:20:24;;;;;;;1.77;1.00;;;;;;;16.27;60.90;100099.09;4843008;29;20068;-78
2022/11/15 16:22:49;;;;;;;2.13;1.17;;;;;;;16.27;60.87;100104.28;4826554;29;20295;-78
2022/11/15 16:25:14;;;;;;;2.22;1.05;;;;;;;16.28;60.94;100106.00;4827016;29;20045;-78
2022/11/15 16:27:44;;;;;;;2.58;1.20;;;;;;;16.27;60.96;100099.94;4811993;29;20046;-77
2022/11/15 16:30:21;;;;;;;1.83;0.95;;;;;;;16.26;61.13;100103.41;4811764;29;20042;-78
2022/11/15 16:32:47;;;;;;;1.48;0.90;;;;;;;16.26;60.92;100090.41;4826178;29;20054;-78
2022/11/15 16:35:14;;;;;;;1.88;0.90;;;;;;;16.27;60.74;100101.69;4826416;29;20069;-78
2022/11/15 16:37:40;;;;;;;1.70;0.90;;;;;;;16.27;60.92;100096.50;4829850;29;20042;-78